Time;durP1;ratioP1;P1;durP2;ratioP2;P2;SDS_P1;SDS_P2;PMS_P1;PMS_P2;Temp;Humidity;BMP_temperature;BMP_pressure;BME280_temperature;BME280_humidity;BME280_pressure;Samples;Min_cycle;Max_cycle;Signal;HPM_P1;HPM_P2
2022/04/28 00:00:32;;;;;;;1.55;1.23;;;23.00;40.20;;;;;;6284425;28;20751;-49
2022/04/28 00:03:34;;;;;;;1.38;1.27;;;22.90;40.10;;;;;;6303771;27;20150;-48
2022/04/28 00:06:35;;;;;;;1.20;1.10;;;23.00;40.20;;;;;;6303603;27;20043;-51
2022/04/28 00:09:38;;;;;;;1.30;1.20;;;22.90;40.00;;;;;;6307259;27;20055;-50
2022/04/28 00:12:39;;;;;;;1.67;1.30;;;22.90;40.00;;;;;;6299554;27;20052;-52
2022/04/28 00:15:42;;;;;;;1.38;1.27;;;22.90;40.00;;;;;;6304997;27;20898;-49
2022/04/28 00:18:44;;;;;;;1.48;1.23;;;22.30;39.70;;;;;;6286225;27;20046;-51
2022/04/28 00:21:46;;;;;;;1.48;1.20;;;22.90;39.90;;;;;;6304318;27;20169;-47
2022/04/28 00:24:47;;;;;;;1.40;1.20;;;22.90;39.90;;;;;;6286784;27;20043;-50
2022/04/28 00:27:49;;;;;;;1.60;1.17;;;22.90;39.80;;;;;;6300757;27;20943;-48
2022/04/28 00:30:52;;;;;;;1.30;1.20;;;22.80;39.70;;;;;;6307662;27;20096;-49
2022/04/28 00:33:55;;;;;;;1.65;1.55;;;22.90;39.70;;;;;;6304726;27;20067;-49
2022/04/28 00:36:57;;;;;;;1.20;1.10;;;22.90;39.70;;;;;;6305727;27;20050;-52
2022/04/28 00:39:59;;;;;;;1.30;1.20;;;23.00;39.70;;;;;;6305823;27;20044;-50
2022/04/28 00:46:12;;;;;;;1.30;1.20;;;22.90;39.60;;;;;;6300033;27;20052;-48
2022/04/28 00:52:30;;;;;;;1.55;1.20;;;22.80;39.50;;;;;;6299076;27;20617;-50
2022/04/28 00:55:32;;;;;;;1.30;1.20;;;22.80;39.40;;;;;;6265846;27;20049;-51
2022/04/28 00:58:34;;;;;;;1.30;1.10;;;22.80;39.30;;;;;;6287663;28;20047;-49
2022/04/28 01:01:37;;;;;;;1.55;1.25;;;22.70;39.30;;;;;;6296886;27;20149;-52
2022/04/28 01:04:40;;;;;;;1.40;1.27;;;22.60;39.80;;;;;;6298960;27;20047;-51
2022/04/28 01:07:42;;;;;;;1.38;1.23;;;22.80;39.30;;;;;;6298439;27;20140;-49
2022/04/28 01:10:43;;;;;;;1.42;1.33;;;22.80;39.20;;;;;;6301896;27;20041;-51
2022/04/28 01:13:46;;;;;;;1.10;1.00;;;22.80;39.20;;;;;;6293253;27;22180;-48
2022/04/28 01:16:54;;;;;;;1.20;1.10;;;22.80;39.20;;;;;;6298968;27;20138;-52
2022/04/28 01:19:56;;;;;;;1.40;1.10;;;22.70;39.10;;;;;;6295956;27;20043;-47
2022/04/28 01:22:59;;;;;;;1.33;1.20;;;22.70;39.10;;;;;;6293431;27;20167;-49
2022/04/28 01:26:01;;;;;;;1.15;1.05;;;22.70;39.10;;;;;;6279703;28;20867;-48
2022/04/28 01:29:03;;;;;;;1.75;1.10;;;22.80;39.10;;;;;;6297593;27;20042;-49
2022/04/28 01:32:05;;;;;;;1.30;1.10;;;23.30;39.40;;;;;;6301981;27;20042;-48
2022/04/28 01:35:13;;;;;;;1.25;1.15;;;22.80;39.10;;;;;;6299101;27;20825;-49
2022/04/28 01:38:15;;;;;;;1.20;1.08;;;22.80;39.00;;;;;;6297434;27;20808;-48
2022/04/28 01:41:17;;;;;;;1.50;1.15;;;22.70;39.00;;;;;;6301423;27;20046;-50
2022/04/28 01:44:19;;;;;;;1.40;1.20;;;22.80;39.00;;;;;;6299668;27;20063;-53
2022/04/28 01:47:22;;;;;;;0.90;0.90;;;22.80;39.00;;;;;;6302171;27;20265;-50
2022/04/28 01:54:57;;;;;;;1.50;1.27;;;22.80;39.00;;;;;;6300629;27;20047;-49
2022/04/28 01:57:29;;;;;;;1.30;1.20;;;22.80;38.90;;;;;;6298655;27;20400;-46
2022/04/28 02:00:47;;;;;;;1.40;1.30;;;22.80;38.90;;;;;;6289306;27;21073;-47
2022/04/28 02:03:52;;;;;;;1.15;1.02;;;22.70;38.90;;;;;;6292132;27;20074;-49
2022/04/28 02:06:55;;;;;;;1.30;1.13;;;22.90;39.00;;;;;;6273107;27;20162;-48
2022/04/28 02:09:59;;;;;;;1.05;0.95;;;22.70;38.90;;;;;;6292176;28;20229;-47
2022/04/28 02:13:01;;;;;;;1.65;1.17;;;22.70;38.90;;;;;;6273103;28;20852;-48
2022/04/28 02:16:18;;;;;;;1.30;1.20;;;22.80;39.50;;;;;;6295369;27;20161;-47
2022/04/28 02:19:35;;;;;;;1.27;1.17;;;22.60;38.80;;;;;;6288499;27;20429;-47
2022/04/28 02:22:37;;;;;;;1.20;1.10;;;22.80;38.90;;;;;;6294760;27;20679;-48
2022/04/28 02:25:40;;;;;;;1.10;1.00;;;22.80;38.90;;;;;;6274728;27;20055;-47
2022/04/28 02:28:43;;;;;;;1.27;1.17;;;22.80;38.90;;;;;;6298106;27;20200;-47
2022/04/28 02:31:45;;;;;;;1.10;0.90;;;22.50;38.70;;;;;;6300435;27;20942;-46
2022/04/28 02:34:47;;;;;;;1.27;0.90;;;22.70;38.70;;;;;;6303596;27;20042;-49
2022/04/28 02:37:49;;;;;;;1.27;0.95;;;22.70;38.70;;;;;;6302095;27;20123;-48
2022/04/28 02:40:52;;;;;;;1.38;1.10;;;22.70;38.80;;;;;;6298375;27;20058;-47
2022/04/28 02:43:54;;;;;;;1.30;1.20;;;22.70;38.70;;;;;;6302928;27;20047;-47
2022/04/28 02:46:57;;;;;;;1.20;1.10;;;22.60;38.70;;;;;;6298278;27;20043;-47
2022/04/28 02:50:04;;;;;;;1.23;0.98;;;22.60;38.60;;;;;;6300620;27;20051;-51
2022/04/28 02:53:10;;;;;;;1.13;1.02;;;22.70;38.70;;;;;;6298984;27;20371;-46
2022/04/28 02:56:18;;;;;;;1.25;1.15;;;22.70;38.70;;;;;;6298435;27;20482;-50
2022/04/28 02:59:19;;;;;;;1.13;1.00;;;22.70;38.70;;;;;;6298664;27;20322;-49
2022/04/28 03:02:21;;;;;;;1.20;1.10;;;22.70;38.70;;;;;;6299438;27;20043;-46
2022/04/28 03:05:23;;;;;;;1.27;1.17;;;22.70;38.70;;;;;;6300687;27;20749;-50
2022/04/28 03:11:41;;;;;;;1.20;1.10;;;22.70;38.60;;;;;;6294666;27;21048;-46
2022/04/28 03:14:44;;;;;;;1.30;1.20;;;22.60;38.60;;;;;;6291123;27;20116;-48
2022/04/28 03:17:46;;;;;;;1.17;1.08;;;22.70;38.60;;;;;;6285595;27;20358;-47
2022/04/28 03:20:47;;;;;;;1.30;1.10;;;22.70;38.60;;;;;;6293249;28;20890;-49
2022/04/28 03:23:49;;;;;;;1.60;0.90;;;22.70;38.60;;;;;;6293932;27;20347;-50
2022/04/28 03:26:51;;;;;;;0.98;0.88;;;22.70;38.70;;;;;;6296964;27;20044;-51
2022/04/28 03:29:54;;;;;;;1.10;1.00;;;22.70;38.90;;;;;;6292791;27;20062;-47
2022/04/28 03:32:56;;;;;;;1.17;1.05;;;22.70;38.90;;;;;;6295330;27;20550;-50
2022/04/28 03:35:58;;;;;;;1.38;1.00;;;22.70;38.90;;;;;;6294154;27;20035;-50
2022/04/28 03:39:00;;;;;;;2.20;1.10;;;22.70;38.90;;;;;;6295141;27;20974;-50
2022/04/28 03:42:03;;;;;;;1.02;0.95;;;22.70;38.90;;;;;;6299921;27;20547;-49
2022/04/28 03:45:06;;;;;;;0.95;0.85;;;22.60;38.80;;;;;;6295979;27;20302;-49
2022/04/28 03:48:16;;;;;;;1.30;1.17;;;22.70;38.90;;;;;;6294054;27;20034;-51
2022/04/28 03:51:19;;;;;;;1.10;1.00;;;22.70;38.90;;;;;;6294230;27;20720;-48
2022/04/28 03:54:21;;;;;;;1.10;1.00;;;22.70;38.80;;;;;;6297180;27;20412;-48
2022/04/28 03:57:24;;;;;;;1.30;1.20;;;22.70;38.80;;;;;;6291460;27;20406;-50
2022/04/28 04:00:26;;;;;;;1.65;1.15;;;22.70;38.70;;;;;;6292027;27;20393;-49
2022/04/28 04:03:35;;;;;;;1.17;1.08;;;22.70;38.70;;;;;;6293028;27;20891;-50
2022/04/28 04:06:37;;;;;;;1.23;0.90;;;22.70;38.70;;;;;;6291394;28;20887;-50
2022/04/28 04:09:58;;;;;;;;;;;22.70;38.70;;;;;;6301044;27;20135;-53
2022/04/28 04:13:08;;;;;;;1.70;1.05;;;22.70;38.70;;;;;;6302267;27;19926;-51
2022/04/28 04:16:14;;;;;;;1.27;1.15;;;22.50;38.60;;;;;;6287128;28;20031;-51
2022/04/28 04:19:36;;;;;;;1.20;1.10;;;22.70;38.60;;;;;;6305981;28;20078;-50
2022/04/28 04:22:38;;;;;;;1.10;0.90;;;22.70;38.60;;;;;;6301863;27;20047;-49
2022/04/28 04:25:40;;;;;;;1.20;1.10;;;22.70;38.60;;;;;;6288707;27;20035;-51
2022/04/28 04:28:49;;;;;;;1.10;1.00;;;22.70;38.60;;;;;;6286170;27;20700;-53
2022/04/28 04:35:29;;;;;;;;;;;22.70;38.60;;;;;;6276271;27;20135;-49
2022/04/28 04:38:33;;;;;;;1.10;1.00;;;22.70;38.60;;;;;;6299763;27;20802;-53
2022/04/28 04:41:35;;;;;;;1.33;0.93;;;22.60;39.10;;;;;;6304293;27;20039;-52
2022/04/28 04:44:39;;;;;;;2.00;1.17;;;22.60;38.50;;;;;;6285454;27;20055;-51
2022/04/28 04:47:43;;;;;;;1.10;1.00;;;22.80;38.60;;;;;;6287219;27;20155;-51
2022/04/28 04:50:52;;;;;;;0.90;0.88;;;22.70;38.50;;;;;;6287234;28;20805;-51
2022/04/28 04:54:08;;;;;;;1.25;1.15;;;22.60;38.50;;;;;;6287471;27;20142;-49
2022/04/28 04:57:09;;;;;;;1.63;1.08;;;22.60;38.50;;;;;;6291177;28;20361;-51
2022/04/28 05:00:12;;;;;;;1.30;1.10;;;22.50;38.50;;;;;;6291095;27;20837;-53
2022/04/28 05:03:34;;;;;;;1.38;0.90;;;22.70;38.50;;;;;;6298936;27;21419;-52
2022/04/28 05:06:54;;;;;;;1.10;1.00;;;22.60;38.50;;;;;;6299327;27;20045;-52
2022/04/28 05:10:01;;;;;;;1.08;0.98;;;22.60;38.50;;;;;;6294784;28;20132;-52
2022/04/28 05:13:03;;;;;;;0.80;0.80;;;22.60;38.50;;;;;;6295583;28;20078;-53
2022/04/28 05:16:18;;;;;;;1.20;1.10;;;22.60;38.50;;;;;;6276622;27;20833;-51
2022/04/28 05:19:27;;;;;;;1.00;0.90;;;22.60;38.50;;;;;;6296820;27;20108;-53
2022/04/28 05:22:48;;;;;;;1.33;1.23;;;22.60;38.50;;;;;;6281253;28;20918;-52
2022/04/28 05:26:08;;;;;;;1.13;1.00;;;22.60;38.50;;;;;;6301510;27;20063;-53
2022/04/28 05:29:29;;;;;;;1.30;1.20;;;22.60;38.50;;;;;;6282552;28;20970;-52
2022/04/28 05:32:51;;;;;;;1.85;0.98;;;22.60;38.50;;;;;;6293843;28;20143;-58
2022/04/28 05:36:09;;;;;;;1.20;0.82;;;22.60;38.50;;;;;;6274607;28;20023;-53
2022/04/28 05:39:12;;;;;;;1.00;0.88;;;22.60;38.60;;;;;;6285599;27;20967;-52
2022/04/28 05:42:13;;;;;;;1.10;1.00;;;22.60;38.50;;;;;;6285622;27;21157;-53
2022/04/28 05:48:32;;;;;;;0.80;0.80;;;22.60;38.50;;;;;;6279171;27;20023;-50
2022/04/28 05:51:34;;;;;;;1.00;0.73;;;22.70;38.60;;;;;;6262655;27;20054;-51
2022/04/28 05:54:40;;;;;;;0.63;0.63;;;22.60;38.50;;;;;;6258402;27;20042;-49
2022/04/28 05:57:42;;;;;;;1.13;0.90;;;22.70;38.50;;;;;;6260572;27;20051;-50
2022/04/28 06:00:44;;;;;;;1.10;1.00;;;22.40;38.40;;;;;;6283497;27;20055;-49
2022/04/28 06:03:46;;;;;;;0.80;0.70;;;22.60;38.50;;;;;;6277313;27;20070;-51
2022/04/28 06:06:51;;;;;;;0.70;0.60;;;22.60;38.50;;;;;;6283820;27;20713;-51
2022/04/28 06:10:05;;;;;;;0.75;0.70;;;22.70;38.50;;;;;;6270665;27;20069;-51
2022/04/28 06:13:08;;;;;;;0.73;0.60;;;22.60;38.50;;;;;;6257195;27;20032;-51
2022/04/28 06:16:29;;;;;;;0.90;0.80;;;22.50;38.50;;;;;;6273696;27;21284;-53
2022/04/28 06:19:43;;;;;;;1.20;0.90;;;22.70;38.60;;;;;;6269362;27;20161;-49
2022/04/28 06:23:18;;;;;;;1.08;0.77;;;22.60;38.60;;;;;;6250757;27;20116;-55
2022/04/28 06:26:22;;;;;;;1.08;0.70;;;22.70;38.60;;;;;;6267483;27;20150;-53
2022/04/28 06:29:24;;;;;;;0.90;0.75;;;22.70;38.60;;;;;;6258722;27;20048;-52
2022/04/28 06:32:28;;;;;;;0.65;0.65;;;22.70;38.70;;;;;;6252835;27;20046;-53
2022/04/28 06:35:49;;;;;;;0.80;0.52;;;22.70;38.70;;;;;;6255321;27;20051;-52
2022/04/28 06:38:55;;;;;;;0.60;0.60;;;22.70;38.60;;;;;;6234794;27;20043;-49
2022/04/28 06:41:58;;;;;;;0.90;0.60;;;22.70;38.60;;;;;;6220661;27;20035;-50
2022/04/28 06:45:19;;;;;;;;;;;22.70;38.60;;;;;;6233300;27;20157;-56
2022/04/28 06:48:41;;;;;;;10.88;8.85;;;22.80;38.70;;;;;;6214707;27;20011;-57
2022/04/28 06:51:58;;;;;;;12.32;6.68;;;22.70;38.50;;;;;;6214624;27;20065;-51
2022/04/28 06:55:20;;;;;;;5.32;3.63;;;22.60;38.60;;;;;;6187741;27;21148;-52
2022/04/28 06:58:26;;;;;;;2.30;1.67;;;22.40;38.70;;;;;;6154864;27;20078;-53
2022/04/28 07:01:28;;;;;;;2.60;2.00;;;22.40;38.90;;;;;;6171120;27;20043;-54
2022/04/28 07:04:39;;;;;;;1.42;1.10;;;22.40;39.00;;;;;;6099233;27;20060;-53
2022/04/28 07:07:45;;;;;;;1.88;1.30;;;22.50;39.10;;;;;;6070992;28;20046;-52
2022/04/28 07:10:51;;;;;;;1.85;1.33;;;22.40;39.20;;;;;;6081118;28;20042;-53
2022/04/28 07:13:52;;;;;;;1.90;1.30;;;22.50;39.30;;;;;;6072582;28;20055;-56
2022/04/28 07:17:08;;;;;;;1.35;0.80;;;22.50;39.30;;;;;;6089495;28;20810;-56
2022/04/28 07:20:21;;;;;;;1.15;1.00;;;22.60;39.40;;;;;;6089941;28;20079;-54
2022/04/28 07:23:24;;;;;;;1.55;0.93;;;22.60;39.50;;;;;;6092466;28;20053;-56
2022/04/28 07:26:25;;;;;;;1.98;0.80;;;22.60;39.50;;;;;;6083029;28;41466;-47
2022/04/28 07:29:27;;;;;;;1.33;0.88;;;22.70;39.50;;;;;;6074007;28;27731;-49
2022/04/28 07:32:45;;;;;;;2.03;0.80;;;22.70;39.60;;;;;;6012995;28;25420;-48
2022/04/28 07:36:06;;;;;;;1.88;0.80;;;22.70;39.60;;;;;;6072217;28;20178;-48
2022/04/28 07:39:29;;;;;;;2.60;0.93;;;22.80;39.60;;;;;;6085522;28;20051;-48
2022/04/28 07:42:47;;;;;;;1.48;0.70;;;22.70;39.60;;;;;;6049211;28;39453;-48
2022/04/28 07:45:49;;;;;;;1.38;0.82;;;22.70;39.50;;;;;;6063741;28;20128;-48
2022/04/28 07:48:52;;;;;;;1.38;0.82;;;22.80;39.60;;;;;;6078259;28;20047;-50
2022/04/28 07:51:54;;;;;;;0.70;0.63;;;22.80;39.50;;;;;;6057136;28;20095;-51
2022/04/28 07:54:57;;;;;;;1.10;0.85;;;22.80;39.50;;;;;;6039763;28;20043;-47
2022/04/28 07:58:00;;;;;;;2.45;0.85;;;22.90;39.50;;;;;;6017943;28;39828;-48
2022/04/28 08:01:18;;;;;;;1.75;0.98;;;22.90;39.30;;;;;;6024629;28;20052;-50
2022/04/28 08:04:20;;;;;;;2.75;1.02;;;22.90;39.50;;;;;;6040221;28;20161;-50
2022/04/28 08:07:31;;;;;;;1.10;0.70;;;22.90;39.20;;;;;;6041283;28;20112;-48
2022/04/28 08:10:34;;;;;;;1.95;1.00;;;23.00;39.30;;;;;;6053377;28;20055;-51
2022/04/28 08:13:36;;;;;;;0.98;0.85;;;23.10;39.00;;;;;;6064856;28;20048;-50
2022/04/28 08:16:48;;;;;;;1.45;0.90;;;23.10;39.00;;;;;;6061848;28;23274;-49
2022/04/28 08:19:50;;;;;;;1.75;1.00;;;23.20;39.00;;;;;;6043743;28;20044;-50
2022/04/28 08:22:52;;;;;;;0.63;0.63;;;23.10;38.90;;;;;;6060400;28;20705;-50
2022/04/28 08:25:54;;;;;;;1.33;0.93;;;23.20;38.80;;;;;;6017766;28;20052;-51
2022/04/28 08:28:56;;;;;;;0.82;0.80;;;23.20;38.70;;;;;;6048159;28;20055;-48
2022/04/28 08:31:59;;;;;;;1.02;0.80;;;23.30;38.70;;;;;;6036006;28;29390;-53
2022/04/28 08:35:01;;;;;;;1.13;0.80;;;23.30;38.70;;;;;;6028376;28;22010;-56
2022/04/28 08:38:03;;;;;;;1.08;0.90;;;23.20;38.60;;;;;;6037574;28;20039;-51
2022/04/28 08:41:10;;;;;;;2.05;0.75;;;23.40;38.60;;;;;;6043110;28;20047;-52
2022/04/28 08:44:28;;;;;;;1.20;1.00;;;23.40;38.50;;;;;;6052936;28;20051;-52
2022/04/28 08:47:49;;;;;;;;;;;23.50;38.60;;;;;;6088506;28;20055;-56
2022/04/28 08:51:09;;;;;;;0.82;0.75;;;23.40;38.50;;;;;;6091508;27;19928;-53
2022/04/28 08:54:14;;;;;;;1.63;0.82;;;23.40;38.50;;;;;;6061301;28;20047;-53
2022/04/28 08:57:16;;;;;;;1.02;0.90;;;23.60;38.50;;;;;;6060842;28;20039;-54
2022/04/28 09:00:18;;;;;;;1.33;0.77;;;23.40;38.40;;;;;;6071469;28;20163;-54
2022/04/28 09:03:38;;;;;;;2.13;1.00;;;23.50;38.60;;;;;;6053382;28;20048;-55
2022/04/28 09:07:33;;;;;;;1.20;0.73;;;23.40;38.50;;;;;;6059206;27;20047;-53
2022/04/28 09:10:56;;;;;;;0.80;0.65;;;23.40;38.40;;;;;;6073488;28;20518;-52
2022/04/28 09:14:20;;;;;;;0.90;0.70;;;23.50;38.60;;;;;;6062831;28;20045;-52
2022/04/28 09:17:22;;;;;;;0.90;0.73;;;22.90;38.30;;;;;;6054044;28;20154;-52
2022/04/28 09:20:26;;;;;;;1.85;0.80;;;23.50;38.60;;;;;;6058905;28;20565;-53
2022/04/28 09:23:35;;;;;;;1.00;0.90;;;23.50;38.70;;;;;;6097170;28;20038;-51
2022/04/28 09:26:39;;;;;;;3.70;0.95;;;23.30;38.50;;;;;;6064801;28;20044;-52
2022/04/28 09:29:43;;;;;;;1.23;0.70;;;23.50;38.60;;;;;;6087178;28;20166;-51
2022/04/28 09:32:50;;;;;;;0.88;0.63;;;23.50;38.60;;;;;;6096707;28;21699;-53
2022/04/28 09:36:18;;;;;;;2.38;0.80;;;23.50;38.60;;;;;;6071036;28;20165;-52
2022/04/28 09:42:49;;;;;;;0.95;0.70;;;23.60;38.70;;;;;;6079393;28;20181;-53
2022/04/28 09:45:59;;;;;;;1.52;0.82;;;23.50;38.60;;;;;;6053177;28;20160;-56
2022/04/28 09:49:01;;;;;;;0.93;0.70;;;23.50;38.60;;;;;;6044975;28;20044;-54
2022/04/28 09:52:11;;;;;;;1.70;0.63;;;23.60;38.60;;;;;;6064891;28;22958;-53
2022/04/28 09:55:30;;;;;;;1.00;0.70;;;23.60;38.70;;;;;;6055564;28;20102;-50
2022/04/28 09:58:49;;;;;;;1.15;0.70;;;23.60;38.50;;;;;;6047789;28;20044;-51
2022/04/28 10:01:52;;;;;;;1.75;1.00;;;23.60;38.50;;;;;;5964924;28;20050;-51
2022/04/28 10:04:55;;;;;;;1.02;0.90;;;23.60;38.60;;;;;;6030096;28;22150;-48
2022/04/28 10:08:09;;;;;;;1.50;0.80;;;23.60;38.50;;;;;;6059678;28;20055;-52
2022/04/28 10:11:17;;;;;;;1.20;0.73;;;23.60;38.50;;;;;;6068005;28;22244;-52
2022/04/28 10:14:22;;;;;;;0.82;0.70;;;23.70;38.50;;;;;;6075722;28;20125;-49
2022/04/28 10:17:30;;;;;;;0.80;0.77;;;23.80;38.50;;;;;;6058751;28;20123;-49
2022/04/28 10:20:36;;;;;;;0.70;0.70;;;23.70;38.50;;;;;;6053150;28;20044;-52
2022/04/28 10:34:17;;;;;;;2.08;1.10;;;23.90;38.50;;;;;;6116609;28;20488;-50
2022/04/28 10:37:29;;;;;;;1.50;1.08;;;23.90;38.40;;;;;;6127411;28;20095;-49
2022/04/28 10:40:36;;;;;;;1.70;1.10;;;24.00;38.50;;;;;;6113416;28;21959;-51
2022/04/28 10:43:40;;;;;;;1.35;0.80;;;24.00;38.40;;;;;;6137652;28;20047;-49
2022/04/28 10:46:56;;;;;;;0.82;0.80;;;23.90;38.30;;;;;;6162979;28;20039;-54
2022/04/28 10:49:58;;;;;;;0.93;0.88;;;24.70;38.70;;;;;;6149375;28;20122;-53
2022/04/28 10:53:02;;;;;;;3.67;0.95;;;24.00;38.30;;;;;;6183408;28;20036;-54
2022/04/28 10:56:09;;;;;;;1.58;0.88;;;24.00;38.30;;;;;;6166937;28;20051;-49
2022/04/28 10:59:32;;;;;;;0.70;0.70;;;24.00;38.30;;;;;;6172042;28;22053;-55
2022/04/28 11:02:41;;;;;;;2.53;0.85;;;24.00;38.20;;;;;;6157209;28;20059;-52
2022/04/28 11:05:44;;;;;;;2.22;0.90;;;24.00;38.20;;;;;;6121419;28;24737;-52
2022/04/28 11:08:48;;;;;;;1.25;0.88;;;24.00;38.30;;;;;;6153735;28;20139;-54
2022/04/28 11:11:49;;;;;;;0.82;0.60;;;24.10;38.30;;;;;;6180468;28;20044;-51
2022/04/28 11:14:59;;;;;;;1.15;0.65;;;24.10;38.30;;;;;;6169179;28;20108;-49
2022/04/28 11:18:01;;;;;;;1.02;0.80;;;24.10;38.30;;;;;;6182892;28;20113;-54
2022/04/28 11:21:05;;;;;;;1.98;0.70;;;24.10;38.30;;;;;;6157050;28;20061;-51
2022/04/28 11:24:07;;;;;;;5.00;2.95;;;24.90;38.60;;;;;;6158534;28;20048;-50
2022/04/28 11:27:15;;;;;;;6.60;4.82;;;24.10;38.20;;;;;;6140814;28;20890;-51
2022/04/28 11:30:26;;;;;;;7.97;5.55;;;24.10;38.10;;;;;;6164170;28;20055;-54
2022/04/28 11:33:28;;;;;;;6.60;5.25;;;23.80;37.80;;;;;;6138064;28;20142;-50
2022/04/28 11:36:30;;;;;;;8.40;5.20;;;23.80;37.70;;;;;;6135949;28;20043;-48
2022/04/28 11:39:34;;;;;;;6.35;4.75;;;24.00;37.80;;;;;;6157241;28;20121;-50
2022/04/28 11:42:36;;;;;;;4.50;3.67;;;23.80;37.70;;;;;;6101835;28;21386;-50
2022/04/28 11:45:38;;;;;;;6.88;5.57;;;23.70;37.90;;;;;;6136358;28;20083;-52
2022/04/28 11:48:40;;;;;;;5.88;4.32;;;23.50;37.80;;;;;;6136680;28;20056;-54
2022/04/28 11:51:42;;;;;;;6.65;3.58;;;23.60;38.00;;;;;;6126124;28;20052;-49
2022/04/28 11:54:44;;;;;;;2.63;2.42;;;23.60;38.20;;;;;;6052584;28;20060;-52
2022/04/28 11:57:48;;;;;;;2.67;1.48;;;23.60;38.30;;;;;;6049474;28;20046;-52
2022/04/28 12:00:50;;;;;;;2.45;1.40;;;23.90;38.60;;;;;;6059709;28;20670;-49
2022/04/28 12:03:53;;;;;;;2.38;1.08;;;23.50;38.40;;;;;;6072911;28;20524;-50
2022/04/28 12:06:56;;;;;;;1.73;1.17;;;23.50;38.50;;;;;;6057027;28;20044;-47
2022/04/28 12:19:56;;;;;;;1.13;0.80;;;23.80;38.60;;;;;;6050732;28;21499;-50
2022/04/28 12:22:58;;;;;;;1.05;0.80;;;23.80;38.60;;;;;;6037997;28;20188;-48
2022/04/28 12:26:02;;;;;;;0.98;0.88;;;23.70;38.50;;;;;;6027202;28;20159;-50
2022/04/28 12:29:08;;;;;;;2.42;0.73;;;23.90;38.60;;;;;;6028212;28;21245;-52
2022/04/28 12:32:09;;;;;;;1.63;0.70;;;23.90;39.10;;;;;;6011492;28;25977;-52
2022/04/28 12:35:35;;;;;;;;;;;24.00;38.50;;;;;;6026124;28;20036;-51
2022/04/28 12:38:43;;;;;;;0.95;0.80;;;24.00;38.40;;;;;;6013211;28;19927;-58
2022/04/28 12:41:45;;;;;;;0.80;0.80;;;24.00;38.30;;;;;;6045992;28;21213;-56
2022/04/28 12:44:46;;;;;;;1.10;0.90;;;24.00;38.10;;;;;;6057352;28;20047;-53
2022/04/28 12:47:51;;;;;;;0.80;0.70;;;24.00;37.90;;;;;;6062570;28;21568;-54
2022/04/28 12:51:09;;;;;;;1.10;0.90;;;24.10;37.90;;;;;;6049404;28;20044;-51
2022/04/28 12:54:13;;;;;;;1.23;0.80;;;24.10;37.70;;;;;;6050249;28;20151;-54
2022/04/28 12:57:16;;;;;;;0.77;0.77;;;24.00;38.20;;;;;;6070689;28;20057;-50
2022/04/28 13:00:18;;;;;;;1.80;0.80;;;24.00;37.50;;;;;;6056406;28;20046;-50
2022/04/28 13:03:28;;;;;;;0.80;0.70;;;24.00;37.50;;;;;;6004910;28;20044;-50
2022/04/28 13:06:32;;;;;;;1.00;0.60;;;24.00;37.50;;;;;;6031155;28;20040;-51
2022/04/28 13:09:34;;;;;;;1.10;0.82;;;24.00;37.40;;;;;;6004138;28;20150;-50
2022/04/28 13:12:37;;;;;;;0.85;0.85;;;24.00;37.30;;;;;;5980149;28;20162;-49
2022/04/28 13:15:38;;;;;;;0.75;0.70;;;24.10;37.30;;;;;;6032432;28;21022;-48
2022/04/28 13:18:40;;;;;;;1.08;0.90;;;24.00;37.20;;;;;;6028806;28;20036;-50
2022/04/28 13:21:42;;;;;;;1.15;0.82;;;24.20;37.20;;;;;;6024592;28;20517;-49
2022/04/28 13:24:45;;;;;;;1.00;0.80;;;24.00;37.20;;;;;;6047254;28;20044;-49
2022/04/28 13:27:46;;;;;;;1.00;0.90;;;24.10;37.10;;;;;;6044331;28;20055;-49
2022/04/28 13:30:49;;;;;;;1.00;0.85;;;24.10;37.10;;;;;;6041421;28;20287;-50
2022/04/28 13:33:52;;;;;;;0.80;0.73;;;24.10;37.00;;;;;;6012172;28;20063;-51
2022/04/28 13:36:54;;;;;;;1.10;0.90;;;24.00;37.00;;;;;;5982857;28;20170;-50
2022/04/28 13:39:56;;;;;;;0.95;0.82;;;24.10;37.20;;;;;;6055346;28;20032;-50
2022/04/28 13:42:57;;;;;;;0.80;0.70;;;24.10;37.10;;;;;;6055789;28;20044;-53
2022/04/28 13:46:01;;;;;;;1.00;0.88;;;24.10;37.10;;;;;;6072668;28;20166;-49
2022/04/28 13:49:02;;;;;;;0.82;0.80;;;24.10;37.10;;;;;;6093782;28;20046;-49
2022/04/28 13:52:05;;;;;;;0.90;0.80;;;24.20;37.10;;;;;;6112768;28;21153;-52
2022/04/28 13:55:08;;;;;;;1.02;0.82;;;24.10;37.20;;;;;;6096032;28;20043;-49
2022/04/28 13:58:10;;;;;;;0.90;0.85;;;24.10;37.20;;;;;;6083313;28;20044;-51
2022/04/28 14:01:12;;;;;;;3.60;0.80;;;24.00;37.10;;;;;;6042847;28;20730;-48
2022/04/28 14:04:14;;;;;;;0.77;0.70;;;24.20;37.20;;;;;;6056223;28;20039;-50
2022/04/28 14:07:16;;;;;;;1.15;1.02;;;24.00;37.10;;;;;;6045429;28;20170;-49
2022/04/28 14:10:18;;;;;;;0.70;0.70;;;24.20;37.30;;;;;;6031778;28;20055;-54
2022/04/28 14:13:20;;;;;;;1.00;0.90;;;24.10;37.10;;;;;;6046038;28;20082;-52
2022/04/28 14:16:22;;;;;;;0.80;0.80;;;24.00;37.10;;;;;;6037009;28;20032;-52
2022/04/28 14:19:24;;;;;;;0.80;0.77;;;24.20;37.20;;;;;;6035291;28;20415;-47
2022/04/28 14:22:25;;;;;;;1.27;0.82;;;24.10;37.20;;;;;;6039197;28;20575;-51
2022/04/28 14:25:28;;;;;;;1.00;0.90;;;24.10;37.10;;;;;;6065109;28;21795;-49
2022/04/28 14:28:29;;;;;;;3.85;3.15;;;24.10;37.10;;;;;;6062300;28;20159;-52
2022/04/28 14:31:31;;;;;;;2.75;1.42;;;24.10;37.10;;;;;;6085394;28;20044;-49
2022/04/28 14:34:53;;;;;;;1.38;1.27;;;24.10;37.20;;;;;;6052579;28;20182;-51
2022/04/28 14:37:54;;;;;;;1.98;1.58;;;24.20;37.10;;;;;;6057411;28;20700;-47
2022/04/28 14:40:57;;;;;;;4.28;2.40;;;24.10;37.20;;;;;;6064695;28;22705;-50
2022/04/28 14:44:01;;;;;;;3.63;2.92;;;24.20;37.40;;;;;;6022667;28;21270;-49
2022/04/28 14:47:03;;;;;;;5.15;3.10;;;24.10;37.40;;;;;;6045925;28;20044;-50
2022/04/28 14:53:18;;;;;;;2.60;2.10;;;24.10;37.50;;;;;;6068107;28;20050;-52
2022/04/28 14:56:21;;;;;;;3.53;2.05;;;24.10;37.60;;;;;;6036104;28;20044;-53
2022/04/28 14:59:22;;;;;;;1.55;1.45;;;24.00;37.70;;;;;;6025412;28;21130;-50
2022/04/28 15:02:25;;;;;;;2.03;1.20;;;24.10;37.90;;;;;;6048736;28;20702;-52
2022/04/28 15:05:28;;;;;;;3.40;1.92;;;24.10;37.80;;;;;;6029838;28;20151;-47
2022/04/28 15:08:29;;;;;;;3.83;2.90;;;24.10;37.90;;;;;;6052389;28;20052;-53
2022/04/28 15:11:32;;;;;;;3.17;1.67;;;24.20;37.80;;;;;;6054015;28;20043;-54
2022/04/28 15:14:35;;;;;;;5.32;1.75;;;24.10;37.80;;;;;;6038255;28;20052;-53
2022/04/28 15:17:37;;;;;;;1.83;1.10;;;24.10;37.80;;;;;;6050035;28;20178;-48
2022/04/28 15:20:39;;;;;;;3.05;2.50;;;24.00;37.80;;;;;;6050768;28;20047;-50
2022/04/28 15:23:40;;;;;;;3.00;2.30;;;24.10;37.90;;;;;;6091209;28;20178;-52
2022/04/28 15:26:43;;;;;;;4.03;3.63;;;24.10;37.90;;;;;;6087918;28;20198;-53
2022/04/28 15:29:44;;;;;;;4.43;3.80;;;24.20;38.10;;;;;;6046944;28;20039;-49
2022/04/28 15:33:06;;;;;;;5.43;3.10;;;24.10;38.70;;;;;;6040158;28;20040;-49
2022/04/28 15:36:08;;;;;;;4.18;3.33;;;24.20;38.40;;;;;;6037976;28;20040;-48
2022/04/28 15:39:14;;;;;;;3.85;3.17;;;24.00;38.80;;;;;;6076780;28;20051;-48
2022/04/28 15:42:16;;;;;;;2.50;2.10;;;24.10;38.40;;;;;;6045737;28;20039;-53
2022/04/28 15:45:18;;;;;;;2.03;1.80;;;24.10;38.40;;;;;;6080074;28;20658;-52
2022/04/28 15:48:20;;;;;;;2.22;1.73;;;24.10;38.50;;;;;;6094151;28;20054;-50
2022/04/28 15:51:22;;;;;;;3.67;2.70;;;24.10;38.60;;;;;;6109311;28;20316;-47
2022/04/28 15:54:24;;;;;;;2.63;1.88;;;24.20;38.60;;;;;;6085490;28;20184;-50
2022/04/28 15:57:27;;;;;;;3.28;2.53;;;24.20;38.60;;;;;;6119231;28;25503;-47
2022/04/28 16:00:29;;;;;;;2.83;2.17;;;24.10;38.60;;;;;;6118317;28;20044;-53
2022/04/28 16:03:31;;;;;;;1.73;1.52;;;24.20;38.70;;;;;;6127409;28;20039;-50
2022/04/28 16:06:33;;;;;;;2.35;1.45;;;24.20;38.70;;;;;;6115591;28;20094;-49
2022/04/28 16:09:35;;;;;;;1.50;1.40;;;24.30;39.20;;;;;;6141239;28;20040;-52
2022/04/28 16:12:39;;;;;;;1.55;1.20;;;24.20;38.70;;;;;;6157211;28;20050;-50
2022/04/28 16:15:40;;;;;;;1.35;1.08;;;24.20;38.70;;;;;;6173330;28;20051;-54
2022/04/28 16:18:42;;;;;;;1.55;1.08;;;24.20;38.60;;;;;;6171532;28;20142;-50
2022/04/28 16:21:44;;;;;;;1.35;1.05;;;24.10;38.50;;;;;;6119609;28;20418;-51
2022/04/28 16:24:46;;;;;;;1.05;0.80;;;24.20;38.50;;;;;;6123723;28;21421;-51
2022/04/28 16:27:48;;;;;;;0.93;0.70;;;24.30;38.50;;;;;;6148405;28;20055;-50
2022/04/28 16:30:50;;;;;;;1.25;0.88;;;24.20;38.40;;;;;;6159614;28;22666;-53
2022/04/28 16:33:52;;;;;;;1.08;0.90;;;24.30;38.50;;;;;;6205962;28;21135;-51
2022/04/28 16:36:53;;;;;;;1.05;0.90;;;24.30;38.40;;;;;;6198673;28;20061;-54
2022/04/28 16:39:55;;;;;;;0.98;0.88;;;24.20;38.30;;;;;;6217435;28;20121;-50
2022/04/28 16:42:57;;;;;;;1.55;0.90;;;24.30;38.30;;;;;;6211584;28;20090;-49
2022/04/28 16:45:59;;;;;;;1.40;1.00;;;24.30;38.20;;;;;;6221201;28;20308;-54
2022/04/28 16:49:01;;;;;;;0.90;0.80;;;24.30;38.20;;;;;;6222478;28;20040;-53
2022/04/28 16:52:20;;;;;;;1.45;0.98;;;24.30;38.20;;;;;;6229366;28;20047;-49
2022/04/28 16:55:22;;;;;;;0.80;0.80;;;25.40;38.80;;;;;;6229331;28;20161;-51